Time;durP1;ratioP1;P1;durP2;ratioP2;P2;SDS_P1;SDS_P2;PMS_P1;PMS_P2;Temp;Humidity;BMP_temperature;BMP_pressure;BME280_temperature;BME280_humidity;BME280_pressure;Samples;Min_cycle;Max_cycle;Signal;HPM_P1;HPM_P2
2023/04/30 00:02:19;;;;;;;2.87;2.57;;;;;;;;;;4957834;28;20216;-94
2023/04/30 00:04:46;;;;;;;5.37;2.93;;;;;;;;;;4966072;28;20209;-95
2023/04/30 00:07:14;;;;;;;5.50;2.83;;;;;;;;;;4955384;28;20244;-94
2023/04/30 00:09:41;;;;;;;3.07;2.87;;;;;;;;;;4955541;29;20300;-94
2023/04/30 00:12:08;;;;;;;3.33;2.67;;;;;;;;;;4955874;29;20214;-96
2023/04/30 00:14:35;;;;;;;3.07;2.80;;;;;;;;;;4955984;28;20275;-95
2023/04/30 00:17:02;;;;;;;3.07;2.73;;;;;;;;;;4955539;29;20248;-94
2023/04/30 00:19:28;;;;;;;2.60;2.40;;;;;;;;;;4955350;29;20274;-94
2023/04/30 00:22:00;;;;;;;4.10;2.80;;;;;;;;;;4955292;29;20268;-94
2023/04/30 00:24:28;;;;;;;3.07;2.60;;;;;;;;;;4955478;29;20261;-94
2023/04/30 00:26:55;;;;;;;3.10;2.87;;;;;;;;;;4955061;28;20237;-95
2023/04/30 00:29:22;;;;;;;3.87;2.87;;;;;;;;;;4955082;29;20217;-94
2023/04/30 00:31:49;;;;;;;3.07;2.70;;;;;;;;;;4955234;29;20272;-95
2023/04/30 00:34:16;;;;;;;3.00;2.80;;;;;;;;;;4955137;29;20597;-95
2023/04/30 00:36:43;;;;;;;3.60;2.80;;;;;;;;;;4954972;29;20261;-94
2023/04/30 00:39:09;;;;;;;3.63;2.90;;;;;;;;;;4955270;29;20221;-95
2023/04/30 00:41:38;;;;;;;3.17;2.87;;;;;;;;;;4954677;29;20665;-94
2023/04/30 00:44:05;;;;;;;4.07;2.80;;;;;;;;;;4954944;29;20203;-94
2023/04/30 00:46:32;;;;;;;2.93;2.73;;;;;;;;;;4954742;29;20233;-95
2023/04/30 00:49:01;;;;;;;3.40;2.93;;;;;;;;;;4954868;28;20202;-94
2023/04/30 00:51:28;;;;;;;2.70;2.50;;;;;;;;;;4955134;29;20214;-95
2023/04/30 00:53:58;;;;;;;5.53;3.53;;;;;;;;;;4955533;28;20213;-95
2023/04/30 00:56:25;;;;;;;6.17;3.57;;;;;;;;;;4942496;29;20272;-96
2023/04/30 00:58:56;;;;;;;4.37;2.77;;;;;;;;;;4955162;29;20226;-94
2023/04/30 01:01:23;;;;;;;3.07;2.77;;;;;;;;;;4954743;28;20264;-94
2023/04/30 01:03:50;;;;;;;3.57;2.87;;;;;;;;;;4954865;28;20229;-94
2023/04/30 01:06:17;;;;;;;2.70;2.50;;;;;;;;;;4954167;29;20230;-94
2023/04/30 01:08:44;;;;;;;2.93;2.70;;;;;;;;;;4954929;28;20253;-95
2023/04/30 01:11:19;;;;;;;3.50;3.20;;;;;;;;;;4954659;29;20218;-94
2023/04/30 01:13:52;;;;;;;4.37;2.90;;;;;;;;;;4954594;29;20708;-95
2023/04/30 01:16:23;;;;;;;2.80;2.60;;;;;;;;;;4954446;29;20759;-95
2023/04/30 01:18:57;;;;;;;3.37;2.73;;;;;;;;;;4953985;29;20240;-94
2023/04/30 01:21:25;;;;;;;3.13;2.63;;;;;;;;;;4954345;29;20312;-94
2023/04/30 01:24:07;;;;;;;57.83;30.47;;;;;;;;;;4954152;29;20214;-94
2023/04/30 01:26:45;;;;;;;27.63;15.10;;;;;;;;;;4953945;28;20240;-95
2023/04/30 01:29:15;;;;;;;12.03;8.33;;;;;;;;;;4954502;29;20221;-95
2023/04/30 01:31:43;;;;;;;9.33;5.97;;;;;;;;;;4954405;29;20288;-94
2023/04/30 01:34:10;;;;;;;6.03;4.53;;;;;;;;;;4954112;29;20720;-94
2023/04/30 01:36:45;;;;;;;3.97;3.60;;;;;;;;;;4967241;28;20296;-95
2023/04/30 01:39:21;;;;;;;6.63;5.07;;;;;;;;;;4954377;29;20213;-95
2023/04/30 01:41:53;;;;;;;9.23;5.67;;;;;;;;;;4942144;29;20201;-94
2023/04/30 01:44:33;;;;;;;10.57;7.17;;;;;;;;;;4954283;29;20237;-95
2023/04/30 01:47:06;;;;;;;9.73;5.70;;;;;;;;;;4954243;29;20238;-95
2023/04/30 01:49:41;;;;;;;4.77;4.13;;;;;;;;;;4954109;29;20210;-95
2023/04/30 01:52:15;;;;;;;4.13;3.70;;;;;;;;;;4954243;29;20220;-95
2023/04/30 01:54:46;;;;;;;4.37;3.70;;;;;;;;;;4954354;29;20285;-95
2023/04/30 01:57:16;;;;;;;7.60;6.43;;;;;;;;;;4954269;29;20237;-95
2023/04/30 01:59:45;;;;;;;5.57;3.90;;;;;;;;;;4961314;28;20224;-94
2023/04/30 02:02:12;;;;;;;4.33;3.77;;;;;;;;;;4959533;28;20214;-94
2023/04/30 02:04:39;;;;;;;5.67;4.97;;;;;;;;;;4954238;29;20217;-94
2023/04/30 02:07:06;;;;;;;5.40;4.37;;;;;;;;;;4955306;28;20323;-95
2023/04/30 02:09:33;;;;;;;5.13;3.90;;;;;;;;;;4964741;28;20725;-94
2023/04/30 02:11:59;;;;;;;5.03;3.87;;;;;;;;;;4953778;29;20214;-95
2023/04/30 02:14:27;;;;;;;5.00;4.60;;;;;;;;;;4961960;28;20220;-93
2023/04/30 02:16:55;;;;;;;4.17;3.30;;;;;;;;;;4971587;28;20216;-95
2023/04/30 02:19:21;;;;;;;3.57;3.27;;;;;;;;;;4954309;29;20218;-94
2023/04/30 02:21:48;;;;;;;5.20;3.40;;;;;;;;;;4954184;29;20589;-95
2023/04/30 02:24:15;;;;;;;3.47;3.17;;;;;;;;;;4954296;28;20225;-94
2023/04/30 02:26:42;;;;;;;3.20;2.90;;;;;;;;;;4953830;29;20269;-95
2023/04/30 02:29:09;;;;;;;5.60;4.03;;;;;;;;;;4963443;28;20217;-95
2023/04/30 02:31:36;;;;;;;4.27;3.13;;;;;;;;;;4957084;28;20281;-94
2023/04/30 02:34:04;;;;;;;5.07;3.20;;;;;;;;;;4954021;28;20217;-94
2023/04/30 02:36:35;;;;;;;3.40;3.10;;;;;;;;;;4953567;28;20729;-95
2023/04/30 02:39:01;;;;;;;4.83;2.83;;;;;;;;;;4957589;28;20220;-95
2023/04/30 02:41:29;;;;;;;3.53;3.10;;;;;;;;;;4957177;29;20237;-95
2023/04/30 02:43:56;;;;;;;4.37;4.00;;;;;;;;;;4957369;29;20213;-95
2023/04/30 02:46:23;;;;;;;5.23;3.77;;;;;;;;;;4956633;29;20225;-94
2023/04/30 02:48:50;;;;;;;5.27;4.40;;;;;;;;;;4957276;28;20221;-95
2023/04/30 02:51:18;;;;;;;4.83;4.03;;;;;;;;;;4957203;29;20213;-95
2023/04/30 02:53:44;;;;;;;4.00;3.63;;;;;;;;;;4957619;28;20649;-94
2023/04/30 02:56:11;;;;;;;3.87;3.57;;;;;;;;;;4957248;29;20219;-95
2023/04/30 02:58:38;;;;;;;6.10;3.97;;;;;;;;;;4956813;29;20206;-94
2023/04/30 03:01:05;;;;;;;4.70;3.50;;;;;;;;;;4957155;29;20225;-95
2023/04/30 03:03:32;;;;;;;5.23;3.53;;;;;;;;;;4956851;29;20213;-94
2023/04/30 03:05:59;;;;;;;3.70;3.40;;;;;;;;;;4956945;28;20213;-94
2023/04/30 03:08:27;;;;;;;4.33;3.93;;;;;;;;;;4956953;29;20233;-95
2023/04/30 03:10:54;;;;;;;4.27;3.87;;;;;;;;;;4956555;29;20289;-94
2023/04/30 03:13:21;;;;;;;5.00;3.83;;;;;;;;;;4956843;28;20211;-95
2023/04/30 03:15:47;;;;;;;3.67;3.37;;;;;;;;;;4956424;29;20669;-95
2023/04/30 03:18:14;;;;;;;4.10;3.70;;;;;;;;;;4956864;28;20285;-94
2023/04/30 03:20:41;;;;;;;5.57;4.50;;;;;;;;;;4956633;29;20212;-94
2023/04/30 03:23:08;;;;;;;4.67;3.60;;;;;;;;;;4956637;29;20232;-95
2023/04/30 03:25:36;;;;;;;8.20;3.90;;;;;;;;;;4956432;29;20228;-94
2023/04/30 03:28:03;;;;;;;4.30;3.63;;;;;;;;;;4956475;28;20237;-95
2023/04/30 03:30:30;;;;;;;3.60;3.23;;;;;;;;;;4968501;28;20206;-95
2023/04/30 03:32:56;;;;;;;4.67;3.53;;;;;;;;;;4956388;29;20209;-95
2023/04/30 03:35:23;;;;;;;4.63;3.83;;;;;;;;;;4956342;28;20242;-95
2023/04/30 03:37:50;;;;;;;6.80;4.80;;;;;;;;;;4956152;28;20213;-95
2023/04/30 03:40:17;;;;;;;5.33;4.17;;;;;;;;;;4955922;28;20208;-95
2023/04/30 03:42:45;;;;;;;7.40;3.93;;;;;;;;;;4955673;29;20681;-95
2023/04/30 03:45:12;;;;;;;7.07;3.83;;;;;;;;;;4955978;29;20214;-95
2023/04/30 03:47:39;;;;;;;4.53;4.13;;;;;;;;;;4955967;28;20305;-95
2023/04/30 03:50:07;;;;;;;3.67;3.37;;;;;;;;;;4956143;28;20228;-95
2023/04/30 03:52:35;;;;;;;6.63;3.97;;;;;;;;;;4956456;29;20214;-94
2023/04/30 03:55:02;;;;;;;4.43;4.07;;;;;;;;;;4955956;29;20238;-95
2023/04/30 03:57:29;;;;;;;4.37;3.97;;;;;;;;;;4955615;29;20251;-94
2023/04/30 03:59:57;;;;;;;5.50;4.17;;;;;;;;;;4956111;29;20657;-95
2023/04/30 04:02:24;;;;;;;5.97;4.47;;;;;;;;;;4971253;28;20214;-94
2023/04/30 04:04:51;;;;;;;6.40;4.13;;;;;;;;;;4965877;28;20218;-94
2023/04/30 04:07:18;;;;;;;4.27;3.87;;;;;;;;;;4955583;28;20268;-95
2023/04/30 04:09:45;;;;;;;4.03;3.73;;;;;;;;;;4955292;28;20689;-94
2023/04/30 04:12:12;;;;;;;4.30;3.87;;;;;;;;;;4956022;29;20269;-95
2023/04/30 04:14:39;;;;;;;4.50;4.07;;;;;;;;;;4965316;28;20216;-95
2023/04/30 04:17:08;;;;;;;4.47;4.17;;;;;;;;;;4957903;28;20231;-95
2023/04/30 04:19:35;;;;;;;6.97;4.50;;;;;;;;;;4955252;29;20220;-96
2023/04/30 04:22:04;;;;;;;4.40;3.93;;;;;;;;;;4955449;28;20221;-94
2023/04/30 04:24:31;;;;;;;3.93;3.63;;;;;;;;;;4955537;29;20257;-95
2023/04/30 04:26:58;;;;;;;6.30;3.87;;;;;;;;;;4955378;29;20727;-95
2023/04/30 04:29:25;;;;;;;5.50;3.93;;;;;;;;;;4955780;28;20206;-95
2023/04/30 04:31:52;;;;;;;5.00;4.53;;;;;;;;;;4955489;29;20225;-94
2023/04/30 04:34:20;;;;;;;8.17;7.37;;;;;;;;;;4967051;28;20241;-95
2023/04/30 04:36:47;;;;;;;8.00;7.20;;;;;;;;;;4956165;28;20243;-95
2023/04/30 04:39:14;;;;;;;8.30;5.10;;;;;;;;;;4955495;29;20249;-95
2023/04/30 04:41:41;;;;;;;6.40;4.50;;;;;;;;;;4967873;28;20209;-96
2023/04/30 04:44:08;;;;;;;6.60;4.07;;;;;;;;;;4943264;29;20282;-95
2023/04/30 04:46:37;;;;;;;6.13;4.47;;;;;;;;;;4954818;29;20202;-94
2023/04/30 04:49:04;;;;;;;5.90;5.30;;;;;;;;;;4954821;29;20216;-95
2023/04/30 04:51:32;;;;;;;6.13;4.97;;;;;;;;;;4955057;29;20214;-95
2023/04/30 04:53:59;;;;;;;6.50;5.00;;;;;;;;;;4954698;28;20708;-95
2023/04/30 04:56:26;;;;;;;5.27;4.77;;;;;;;;;;4955248;29;20620;-95
2023/04/30 04:58:53;;;;;;;17.20;8.90;;;;;;;;;;4955031;28;20213;-95
2023/04/30 05:01:20;;;;;;;10.07;6.00;;;;;;;;;;4954064;29;20221;-95
2023/04/30 05:03:49;;;;;;;5.50;5.07;;;;;;;;;;4955126;29;20217;-96
2023/04/30 05:06:16;;;;;;;4.77;4.20;;;;;;;;;;4954763;29;20272;-95
2023/04/30 05:08:44;;;;;;;5.27;4.10;;;;;;;;;;4953990;29;20237;-96
2023/04/30 05:11:11;;;;;;;7.03;4.07;;;;;;;;;;4955190;29;20268;-95
2023/04/30 05:13:40;;;;;;;4.00;3.37;;;;;;;;;;4954611;29;20206;-95
2023/04/30 05:16:07;;;;;;;5.20;3.80;;;;;;;;;;4955847;29;20217;-95
2023/04/30 05:18:35;;;;;;;3.63;3.33;;;;;;;;;;4955352;28;20233;-95
2023/04/30 05:21:03;;;;;;;5.20;3.20;;;;;;;;;;4954913;29;20221;-95
2023/04/30 05:23:30;;;;;;;3.57;3.27;;;;;;;;;;4955196;29;20224;-94
2023/04/30 05:25:58;;;;;;;3.33;3.07;;;;;;;;;;4955601;29;20295;-94
2023/04/30 05:28:26;;;;;;;6.50;3.37;;;;;;;;;;4954567;28;20234;-95
2023/04/30 05:30:53;;;;;;;4.83;3.57;;;;;;;;;;4954218;29;20300;-95
2023/04/30 05:33:20;;;;;;;5.17;3.60;;;;;;;;;;4954161;28;20214;-94
2023/04/30 05:35:49;;;;;;;3.30;3.00;;;;;;;;;;4954410;28;20249;-95
2023/04/30 05:38:16;;;;;;;5.43;3.30;;;;;;;;;;4954425;29;20244;-96
2023/04/30 05:40:43;;;;;;;3.80;3.03;;;;;;;;;;4954399;29;20214;-95
2023/04/30 05:43:11;;;;;;;3.77;3.37;;;;;;;;;;4954229;29;20221;-95
2023/04/30 05:45:38;;;;;;;5.33;3.87;;;;;;;;;;4954116;29;20205;-95
2023/04/30 05:48:05;;;;;;;3.90;3.50;;;;;;;;;;4954059;28;20233;-95
2023/04/30 05:50:32;;;;;;;7.80;5.93;;;;;;;;;;4954364;29;20221;-95
2023/04/30 05:52:59;;;;;;;7.93;6.10;;;;;;;;;;4954064;29;20205;-94
2023/04/30 05:55:25;;;;;;;6.57;5.60;;;;;;;;;;4954455;29;20748;-94
2023/04/30 05:57:52;;;;;;;4.20;3.80;;;;;;;;;;4953978;28;20206;-94
2023/04/30 06:00:21;;;;;;;5.83;4.40;;;;;;;;;;4954329;29;20291;-93
2023/04/30 06:02:47;;;;;;;4.33;3.93;;;;;;;;;;4958917;29;20205;-95
2023/04/30 06:05:14;;;;;;;3.57;2.90;;;;;;;;;;4954330;29;20272;-95
2023/04/30 06:07:41;;;;;;;3.17;2.97;;;;;;;;;;4954116;28;20229;-94
2023/04/30 06:10:09;;;;;;;4.07;2.67;;;;;;;;;;4953818;29;20217;-94
2023/04/30 06:12:36;;;;;;;5.83;3.50;;;;;;;;;;4957447;28;20221;-94
2023/04/30 06:15:03;;;;;;;4.43;2.50;;;;;;;;;;4956753;29;20752;-95
2023/04/30 06:17:32;;;;;;;2.57;2.37;;;;;;;;;;4957662;29;20211;-94
2023/04/30 06:20:01;;;;;;;5.60;4.17;;;;;;;;;;4957772;28;20305;-95
2023/04/30 06:22:28;;;;;;;8.27;4.97;;;;;;;;;;4957635;28;20206;-95
2023/04/30 06:24:56;;;;;;;11.33;6.33;;;;;;;;;;4957339;29;20209;-93
2023/04/30 06:27:23;;;;;;;18.30;10.00;;;;;;;;;;4957910;29;20673;-95
2023/04/30 06:29:50;;;;;;;8.40;5.20;;;;;;;;;;4957838;29;20218;-94
2023/04/30 06:32:17;;;;;;;5.50;3.10;;;;;;;;;;4957565;29;20224;-95
2023/04/30 06:34:45;;;;;;;4.03;3.67;;;;;;;;;;4957193;29;20218;-94
2023/04/30 06:37:12;;;;;;;3.40;3.10;;;;;;;;;;4957651;28;20212;-95
2023/04/30 06:39:39;;;;;;;5.20;3.33;;;;;;;;;;4957280;28;20205;-95
2023/04/30 06:42:07;;;;;;;3.90;3.47;;;;;;;;;;4957730;29;20647;-95
2023/04/30 06:44:37;;;;;;;3.23;2.90;;;;;;;;;;4957410;29;20685;-95
2023/04/30 06:47:04;;;;;;;3.33;3.03;;;;;;;;;;4957380;29;20214;-94
2023/04/30 06:49:30;;;;;;;4.17;3.10;;;;;;;;;;4956501;29;20285;-94
2023/04/30 06:52:00;;;;;;;3.17;2.87;;;;;;;;;;4967378;28;20212;-95
2023/04/30 06:54:27;;;;;;;3.60;3.30;;;;;;;;;;4960963;28;20216;-95
2023/04/30 06:56:54;;;;;;;3.80;2.87;;;;;;;;;;4957150;29;20238;-96
2023/04/30 06:59:21;;;;;;;7.97;3.33;;;;;;;;;;4957928;28;20224;-93
2023/04/30 07:01:48;;;;;;;5.60;3.37;;;;;;;;;;4950355;29;20215;-95
2023/04/30 07:04:16;;;;;;;3.80;3.50;;;;;;;;;;4956166;29;20218;-95
2023/04/30 07:06:42;;;;;;;9.57;4.43;;;;;;;;;;4959396;28;20217;-95
2023/04/30 07:09:11;;;;;;;4.87;3.87;;;;;;;;;;4969247;28;20619;-95
2023/04/30 07:11:38;;;;;;;4.53;3.27;;;;;;;;;;4958598;29;20206;-94
2023/04/30 07:14:05;;;;;;;5.13;3.40;;;;;;;;;;4958245;28;20273;-94
2023/04/30 07:16:32;;;;;;;4.73;3.87;;;;;;;;;;4958173;28;20577;-95
2023/04/30 07:18:59;;;;;;;4.20;3.80;;;;;;;;;;4958509;29;20210;-95
2023/04/30 07:21:27;;;;;;;5.23;3.87;;;;;;;;;;4972800;28;20215;-95
2023/04/30 07:23:53;;;;;;;4.13;3.70;;;;;;;;;;4962040;28;20698;-94
2023/04/30 07:26:23;;;;;;;4.07;3.43;;;;;;;;;;4960758;29;20215;-95
2023/04/30 07:28:50;;;;;;;6.47;4.47;;;;;;;;;;4958896;29;20312;-95
2023/04/30 07:31:18;;;;;;;5.77;4.10;;;;;;;;;;4960114;29;20250;-96
2023/04/30 07:33:45;;;;;;;3.90;3.50;;;;;;;;;;4959072;29;20230;-94
2023/04/30 07:36:12;;;;;;;5.50;3.97;;;;;;;;;;4963621;28;20226;-96
2023/04/30 07:38:41;;;;;;;4.57;4.13;;;;;;;;;;4960224;28;20202;-96
2023/04/30 07:41:08;;;;;;;6.70;4.20;;;;;;;;;;4959231;29;20244;-94
2023/04/30 07:43:36;;;;;;;5.87;3.90;;;;;;;;;;4958056;29;20217;-96
2023/04/30 07:46:03;;;;;;;7.13;4.40;;;;;;;;;;4956945;29;20690;-96
2023/04/30 07:48:30;;;;;;;4.17;3.87;;;;;;;;;;4957355;28;20237;-95
2023/04/30 07:51:00;;;;;;;5.77;4.10;;;;;;;;;;4958035;29;20212;-94
2023/04/30 07:53:28;;;;;;;4.00;3.70;;;;;;;;;;4964251;28;20208;-93
2023/04/30 07:56:04;;;;;;;14.73;4.27;;;;;;;;;;4959010;29;20222;-96
2023/04/30 07:58:31;;;;;;;8.70;4.27;;;;;;;;;;4956291;29;20225;-95
2023/04/30 08:00:59;;;;;;;3.03;2.73;;;;;;;;;;4957268;29;20220;-95
2023/04/30 08:03:26;;;;;;;3.50;3.20;;;;;;;;;;4956841;29;20217;-95
2023/04/30 08:05:53;;;;;;;4.60;3.07;;;;;;;;;;4955505;29;20213;-95
2023/04/30 08:08:20;;;;;;;3.90;3.50;;;;;;;;;;4956525;28;20243;-95
2023/04/30 08:10:47;;;;;;;5.30;3.30;;;;;;;;;;4956058;29;20229;-95
2023/04/30 08:13:14;;;;;;;4.67;3.40;;;;;;;;;;4956919;29;20208;-96
2023/04/30 08:15:41;;;;;;;4.83;4.33;;;;;;;;;;4956697;29;20209;-96
2023/04/30 08:18:10;;;;;;;9.77;5.60;;;;;;;;;;4956056;29;20245;-95
2023/04/30 08:20:37;;;;;;;5.37;4.37;;;;;;;;;;4956419;29;20665;-96
2023/04/30 08:23:05;;;;;;;9.93;6.20;;;;;;;;;;4956381;28;20210;-96
2023/04/30 08:25:32;;;;;;;7.33;4.07;;;;;;;;;;4956575;29;20225;-96
2023/04/30 08:27:59;;;;;;;5.57;4.10;;;;;;;;;;4955445;29;20707;-96
2023/04/30 08:30:26;;;;;;;12.83;9.13;;;;;;;;;;4955463;28;20290;-95
2023/04/30 08:32:53;;;;;;;4.60;4.00;;;;;;;;;;4956446;29;20209;-96
2023/04/30 08:35:21;;;;;;;10.57;8.10;;;;;;;;;;4948087;28;20241;-95
2023/04/30 08:37:49;;;;;;;8.43;4.80;;;;;;;;;;4936171;29;20209;-95
2023/04/30 08:40:16;;;;;;;4.87;4.47;;;;;;;;;;4937255;29;20211;-95
2023/04/30 08:42:48;;;;;;;8.90;6.50;;;;;;;;;;4949586;29;20221;-94
2023/04/30 08:45:15;;;;;;;9.17;6.87;;;;;;;;;;4937342;29;20443;-96
2023/04/30 08:47:42;;;;;;;5.67;4.60;;;;;;;;;;4938860;29;20210;-96
2023/04/30 08:50:10;;;;;;;6.13;4.57;;;;;;;;;;4936333;29;20239;-95
2023/04/30 08:52:39;;;;;;;4.70;4.20;;;;;;;;;;4936175;29;20218;-94
2023/04/30 08:55:08;;;;;;;3.60;3.30;;;;;;;;;;4945220;29;20213;-93
2023/04/30 08:57:36;;;;;;;5.67;5.17;;;;;;;;;;4939727;28;20217;-95
2023/04/30 09:00:04;;;;;;;4.80;4.40;;;;;;;;;;4936000;29;20300;-96
2023/04/30 09:02:32;;;;;;;4.97;4.03;;;;;;;;;;4935672;29;20203;-94
2023/04/30 09:04:59;;;;;;;3.67;3.27;;;;;;;;;;4935708;29;20214;-95
2023/04/30 09:07:27;;;;;;;5.20;4.77;;;;;;;;;;4936390;29;20223;-94
2023/04/30 09:09:57;;;;;;;4.40;3.53;;;;;;;;;;4935418;29;20267;-95
2023/04/30 09:12:24;;;;;;;6.13;5.23;;;;;;;;;;4936862;29;20195;-96
2023/04/30 09:15:02;;;;;;;4.43;4.10;;;;;;;;;;4939867;29;20212;-95
2023/04/30 09:17:29;;;;;;;4.77;4.20;;;;;;;;;;4923396;29;20248;-95
2023/04/30 09:20:06;;;;;;;3.70;3.37;;;;;;;;;;4935485;29;20215;-93
2023/04/30 09:22:35;;;;;;;4.80;4.37;;;;;;;;;;4935571;29;20206;-95
2023/04/30 09:25:04;;;;;;;3.23;2.93;;;;;;;;;;4935201;29;20309;-95
2023/04/30 09:27:31;;;;;;;3.87;3.47;;;;;;;;;;4944343;29;20209;-94
2023/04/30 09:29:58;;;;;;;4.70;3.03;;;;;;;;;;4938363;28;20230;-94
2023/04/30 09:32:25;;;;;;;4.23;3.83;;;;;;;;;;4934650;29;20214;-95
2023/04/30 09:34:52;;;;;;;3.33;3.03;;;;;;;;;;4938242;29;20222;-93
2023/04/30 09:37:19;;;;;;;3.43;3.13;;;;;;;;;;4954124;28;20210;-94
2023/04/30 09:39:50;;;;;;;3.50;3.20;;;;;;;;;;4954410;29;20217;-94
2023/04/30 09:42:19;;;;;;;3.63;3.33;;;;;;;;;;4954449;28;20213;-95
2023/04/30 09:44:51;;;;;;;4.83;3.17;;;;;;;;;;4954355;28;20201;-94
2023/04/30 09:47:19;;;;;;;3.53;3.13;;;;;;;;;;4969222;28;20223;-95
2023/04/30 09:49:50;;;;;;;2.87;2.63;;;;;;;;;;4970873;28;20771;-96
2023/04/30 09:52:18;;;;;;;3.57;3.27;;;;;;;;;;4958339;28;20221;-94
2023/04/30 09:54:46;;;;;;;6.77;3.33;;;;;;;;;;4970737;28;20224;-94
2023/04/30 09:57:14;;;;;;;8.23;3.40;;;;;;;;;;4971176;28;20219;-95
2023/04/30 09:59:44;;;;;;;4.17;3.40;;;;;;;;;;4945893;29;20212;-95
2023/04/30 10:02:14;;;;;;;4.53;3.50;;;;;;;;;;4958075;28;20210;-94
2023/04/30 10:04:45;;;;;;;3.87;3.57;;;;;;;;;;4958537;28;20212;-95
2023/04/30 10:07:15;;;;;;;4.87;3.47;;;;;;;;;;4960714;29;20218;-94
2023/04/30 10:09:51;;;;;;;7.33;4.20;;;;;;;;;;4963172;29;20307;-96
2023/04/30 10:12:23;;;;;;;3.83;3.37;;;;;;;;;;4967062;29;20657;-95
2023/04/30 10:14:55;;;;;;;5.13;3.33;;;;;;;;;;4973448;28;20659;-96
2023/04/30 10:17:25;;;;;;;4.80;4.13;;;;;;;;;;4967166;28;20207;-96
2023/04/30 10:19:53;;;;;;;4.40;3.80;;;;;;;;;;4970789;28;20212;-96
2023/04/30 10:22:21;;;;;;;5.00;3.97;;;;;;;;;;4971074;29;20670;-96
2023/04/30 10:24:51;;;;;;;3.30;3.00;;;;;;;;;;4970114;29;20586;-96
2023/04/30 10:27:18;;;;;;;3.93;3.27;;;;;;;;;;4951451;29;20213;-96
2023/04/30 10:29:45;;;;;;;3.93;3.57;;;;;;;;;;4960813;29;20230;-96
2023/04/30 10:32:14;;;;;;;4.60;3.80;;;;;;;;;;4962872;28;20218;-96
2023/04/30 10:34:50;;;;;;;3.50;3.20;;;;;;;;;;4957919;28;20220;-96
2023/04/30 10:37:24;;;;;;;3.87;2.77;;;;;;;;;;4958284;29;20219;-95
2023/04/30 10:39:52;;;;;;;4.17;3.03;;;;;;;;;;4957977;29;20212;-96
2023/04/30 10:42:19;;;;;;;11.73;8.93;;;;;;;;;;4960981;28;20240;-95
2023/04/30 10:44:48;;;;;;;3.63;3.27;;;;;;;;;;4971371;28;20696;-96
2023/04/30 10:47:18;;;;;;;3.87;3.47;;;;;;;;;;4959665;29;20333;-96
2023/04/30 10:49:48;;;;;;;5.63;4.00;;;;;;;;;;4957197;28;20310;-96
2023/04/30 10:52:26;;;;;;;6.17;4.20;;;;;;;;;;4957221;28;20251;-96
2023/04/30 10:54:53;;;;;;;3.43;3.13;;;;;;;;;;4939712;29;20695;-95
2023/04/30 10:57:21;;;;;;;4.57;3.73;;;;;;;;;;4951498;28;20209;-96
2023/04/30 10:59:53;;;;;;;5.47;4.33;;;;;;;;;;4958073;29;20236;-95
2023/04/30 11:02:21;;;;;;;5.60;4.73;;;;;;;;;;4958791;28;20649;-95
2023/04/30 11:05:17;;;;;;;6.57;3.87;;;;;;;;;;4957557;28;20201;-96
2023/04/30 11:07:50;;;;;;;9.93;5.50;;;;;;;;;;4929388;28;20201;-96
2023/04/30 11:10:21;;;;;;;3.10;2.80;;;;;;;;;;4964585;28;20232;-96
2023/04/30 11:12:49;;;;;;;7.17;5.10;;;;;;;;;;4960831;29;20714;-96
2023/04/30 11:15:18;;;;;;;7.40;4.30;;;;;;;;;;4957304;29;20739;-95
2023/04/30 11:17:48;;;;;;;5.33;3.33;;;;;;;;;;4957458;28;20217;-95
2023/04/30 11:20:19;;;;;;;4.83;3.40;;;;;;;;;;4957342;29;20216;-96
2023/04/30 11:22:48;;;;;;;3.60;3.30;;;;;;;;;;4958199;29;20233;-95
2023/04/30 11:25:21;;;;;;;5.43;3.80;;;;;;;;;;4957339;29;20265;-95
2023/04/30 11:27:48;;;;;;;3.93;3.63;;;;;;;;;;4957450;29;20213;-94
2023/04/30 11:30:15;;;;;;;4.00;3.37;;;;;;;;;;4957386;28;20221;-95
2023/04/30 11:32:46;;;;;;;5.43;3.43;;;;;;;;;;4958683;28;20601;-95
2023/04/30 11:35:16;;;;;;;3.23;3.00;;;;;;;;;;4960010;29;20237;-96
2023/04/30 11:37:44;;;;;;;5.07;3.63;;;;;;;;;;4958047;29;20669;-96
2023/04/30 11:40:13;;;;;;;4.20;3.80;;;;;;;;;;4961535;29;20217;-95
2023/04/30 11:42:42;;;;;;;4.03;3.43;;;;;;;;;;4961705;28;20213;-96
2023/04/30 11:45:11;;;;;;;3.30;3.00;;;;;;;;;;4957941;28;20264;-95
2023/04/30 11:47:42;;;;;;;9.00;3.20;;;;;;;;;;4959014;29;20206;-96
2023/04/30 11:50:13;;;;;;;3.40;3.10;;;;;;;;;;4957335;28;20229;-95
2023/04/30 11:52:41;;;;;;;4.07;3.13;;;;;;;;;;4959226;29;20273;-95
2023/04/30 11:55:13;;;;;;;4.40;2.93;;;;;;;;;;4958723;29;20573;-95
2023/04/30 11:57:41;;;;;;;3.97;3.53;;;;;;;;;;4957815;28;20206;-95
2023/04/30 12:00:13;;;;;;;3.57;3.37;;;;;;;;;;4957872;29;20214;-96
2023/04/30 12:02:40;;;;;;;3.30;2.90;;;;;;;;;;4958766;29;20220;-96
2023/04/30 12:05:15;;;;;;;5.87;3.37;;;;;;;;;;4960132;29;20219;-95
2023/04/30 12:07:47;;;;;;;3.43;3.23;;;;;;;;;;4957396;29;20227;-96
2023/04/30 12:10:15;;;;;;;3.60;3.30;;;;;;;;;;4961254;28;20323;-96
2023/04/30 12:12:43;;;;;;;4.13;3.73;;;;;;;;;;4958364;29;20222;-95
2023/04/30 12:15:15;;;;;;;3.43;3.03;;;;;;;;;;4957478;29;20202;-95
2023/04/30 12:17:42;;;;;;;3.33;2.77;;;;;;;;;;4956158;29;20228;-95
2023/04/30 12:20:10;;;;;;;3.93;2.73;;;;;;;;;;4956560;29;20594;-96
2023/04/30 12:22:40;;;;;;;4.00;3.03;;;;;;;;;;4939154;29;20656;-96
2023/04/30 12:25:10;;;;;;;3.00;2.80;;;;;;;;;;4955758;28;20209;-95
2023/04/30 12:27:37;;;;;;;3.27;2.97;;;;;;;;;;4955921;28;20209;-94
2023/04/30 12:30:08;;;;;;;5.53;3.67;;;;;;;;;;4955651;28;20575;-96
2023/04/30 12:32:39;;;;;;;2.97;2.77;;;;;;;;;;4955205;29;20210;-96
2023/04/30 12:35:07;;;;;;;3.40;3.10;;;;;;;;;;4950694;29;20230;-94
2023/04/30 12:37:34;;;;;;;4.87;3.53;;;;;;;;;;4948090;29;20209;-95
2023/04/30 12:40:02;;;;;;;3.30;2.90;;;;;;;;;;4936951;28;20207;-96
2023/04/30 12:42:34;;;;;;;4.17;3.57;;;;;;;;;;4936789;29;20764;-96
2023/04/30 12:45:01;;;;;;;4.00;3.00;;;;;;;;;;4923457;29;20594;-96
2023/04/30 12:47:29;;;;;;;3.33;3.03;;;;;;;;;;4936866;29;20210;-95
2023/04/30 12:50:03;;;;;;;3.13;2.87;;;;;;;;;;4924202;29;20230;-96
2023/04/30 12:52:29;;;;;;;3.13;2.83;;;;;;;;;;4936381;29;20261;-94
2023/04/30 12:54:57;;;;;;;4.53;3.40;;;;;;;;;;4937631;29;20206;-93
2023/04/30 12:57:27;;;;;;;4.93;3.00;;;;;;;;;;4936259;29;20249;-96
2023/04/30 12:59:59;;;;;;;3.03;2.83;;;;;;;;;;4936520;29;20222;-96
2023/04/30 13:02:30;;;;;;;6.10;3.13;;;;;;;;;;4936054;29;20206;-95
2023/04/30 13:04:58;;;;;;;3.13;2.83;;;;;;;;;;4935958;29;20225;-96
2023/04/30 13:07:24;;;;;;;2.93;2.67;;;;;;;;;;4936471;29;20215;-96
2023/04/30 13:09:51;;;;;;;3.80;3.10;;;;;;;;;;4936341;29;20229;-96
2023/04/30 13:12:20;;;;;;;3.07;2.77;;;;;;;;;;4935979;29;20285;-95
2023/04/30 13:14:49;;;;;;;3.37;3.07;;;;;;;;;;4937926;29;20217;-95
2023/04/30 13:17:16;;;;;;;4.37;3.03;;;;;;;;;;4935884;29;20233;-95
2023/04/30 13:19:43;;;;;;;4.33;3.33;;;;;;;;;;4936187;29;20305;-94
2023/04/30 13:22:13;;;;;;;2.67;2.47;;;;;;;;;;4934938;29;20214;-96
2023/04/30 13:24:41;;;;;;;4.83;2.90;;;;;;;;;;4936243;29;20213;-96
2023/04/30 13:27:09;;;;;;;4.13;2.93;;;;;;;;;;4936230;29;20211;-96
2023/04/30 13:29:36;;;;;;;3.53;3.23;;;;;;;;;;4935581;29;20224;-95
2023/04/30 13:32:05;;;;;;;4.40;4.00;;;;;;;;;;4935364;29;20210;-95
2023/04/30 13:34:33;;;;;;;3.43;3.23;;;;;;;;;;4935054;29;20265;-95
2023/04/30 13:37:00;;;;;;;5.47;3.50;;;;;;;;;;4935623;29;20690;-95
2023/04/30 13:39:27;;;;;;;3.07;2.77;;;;;;;;;;4935456;29;20218;-96
2023/04/30 13:41:54;;;;;;;4.30;2.97;;;;;;;;;;4935434;29;20206;-95
2023/04/30 13:44:21;;;;;;;3.40;3.10;;;;;;;;;;4935793;29;20214;-96
2023/04/30 13:46:49;;;;;;;3.73;3.40;;;;;;;;;;4935079;29;20749;-96
2023/04/30 13:49:18;;;;;;;4.13;3.70;;;;;;;;;;4936089;29;20213;-94
2023/04/30 13:51:44;;;;;;;6.13;4.83;;;;;;;;;;4935228;29;20237;-96
2023/04/30 13:54:11;;;;;;;7.10;4.60;;;;;;;;;;4934834;29;20292;-96
2023/04/30 13:56:38;;;;;;;4.33;3.53;;;;;;;;;;4935471;29;20225;-95
2023/04/30 13:59:05;;;;;;;4.63;4.23;;;;;;;;;;4934958;29;20210;-95
2023/04/30 14:01:33;;;;;;;6.17;4.70;;;;;;;;;;4935153;29;20274;-95
2023/04/30 14:04:00;;;;;;;4.30;3.50;;;;;;;;;;4948169;29;20222;-95
2023/04/30 14:06:29;;;;;;;6.77;3.47;;;;;;;;;;4944273;29;20566;-95
2023/04/30 14:08:56;;;;;;;4.87;4.43;;;;;;;;;;4938593;29;20262;-96
2023/04/30 14:11:22;;;;;;;3.53;2.60;;;;;;;;;;4936015;29;20241;-95
2023/04/30 14:13:49;;;;;;;3.97;2.13;;;;;;;;;;4935833;29;20210;-95
2023/04/30 14:16:17;;;;;;;2.83;2.33;;;;;;;;;;4935311;29;20210;-96
2023/04/30 14:18:44;;;;;;;6.43;4.30;;;;;;;;;;4934836;29;20207;-96
2023/04/30 14:21:11;;;;;;;5.37;3.03;;;;;;;;;;4935653;29;20230;-95
2023/04/30 14:23:40;;;;;;;7.20;6.60;;;;;;;;;;4935187;29;20723;-96
2023/04/30 14:26:07;;;;;;;4.77;4.30;;;;;;;;;;4935097;29;20297;-95
2023/04/30 14:28:34;;;;;;;6.63;3.73;;;;;;;;;;4935264;29;20736;-96
2023/04/30 14:31:01;;;;;;;5.67;3.83;;;;;;;;;;4934829;29;20230;-95
2023/04/30 14:33:27;;;;;;;10.37;6.57;;;;;;;;;;4939064;29;20214;-95
2023/04/30 14:35:58;;;;;;;12.10;6.17;;;;;;;;;;4938046;29;20273;-94
2023/04/30 14:38:26;;;;;;;10.97;5.77;;;;;;;;;;4938005;29;20241;-95
2023/04/30 14:40:54;;;;;;;2.43;2.23;;;;;;;;;;4938431;29;20214;-96
2023/04/30 14:43:22;;;;;;;2.37;2.17;;;;;;;;;;4938692;29;20210;-96
2023/04/30 14:45:49;;;;;;;5.60;5.07;;;;;;;;;;4938401;29;20667;-95
2023/04/30 14:48:16;;;;;;;3.57;3.10;;;;;;;;;;4938333;29;20214;-96
2023/04/30 14:50:43;;;;;;;2.83;2.63;;;;;;;;;;4938689;29;20226;-94